sensor_id;sensor_type;location;lat;lon;timestamp;temperature;humidity
49236;DHT22;35067;48.134;8.378;2023-04-03T00:00:04;1.70;99.90
49236;DHT22;35067;48.134;8.378;2023-04-03T00:01:10;1.70;99.90
49236;DHT22;35067;48.134;8.378;2023-04-03T00:02:16;1.80;99.90
49236;DHT22;35067;48.134;8.378;2023-04-03T00:03:22;1.80;99.90
49236;DHT22;35067;48.134;8.378;2023-04-03T00:04:28;2.00;99.90
49236;DHT22;35067;48.134;8.378;2023-04-03T00:05:34;2.00;99.90
49236;DHT22;35067;48.134;8.378;2023-04-03T00:06:39;1.80;99.90
49236;DHT22;35067;48.134;8.378;2023-04-03T00:07:45;1.80;99.90
49236;DHT22;35067;48.134;8.378;2023-04-03T00:08:51;1.70;99.90
49236;DHT22;35067;48.134;8.378;2023-04-03T00:09:57;1.70;99.90
49236;DHT22;35067;48.134;8.378;2023-04-03T00:11:04;1.60;99.90
49236;DHT22;35067;48.134;8.378;2023-04-03T00:12:09;1.70;99.90
49236;DHT22;35067;48.134;8.378;2023-04-03T00:13:16;1.70;99.90
49236;DHT22;35067;48.134;8.378;2023-04-03T00:14:22;1.60;99.90
49236;DHT22;35067;48.134;8.378;2023-04-03T00:15:27;1.70;99.90
49236;DHT22;35067;48.134;8.378;2023-04-03T00:16:33;1.70;99.90
49236;DHT22;35067;48.134;8.378;2023-04-03T00:17:39;1.70;99.90
49236;DHT22;35067;48.134;8.378;2023-04-03T00:18:44;1.80;99.90
49236;DHT22;35067;48.134;8.378;2023-04-03T00:19:50;1.80;99.90
49236;DHT22;35067;48.134;8.378;2023-04-03T00:20:56;1.80;99.90
49236;DHT22;35067;48.134;8.378;2023-04-03T00:22:02;1.80;99.90
49236;DHT22;35067;48.134;8.378;2023-04-03T00:23:04;1.80;99.90
49236;DHT22;35067;48.134;8.378;2023-04-03T00:24:09;1.80;99.90
49236;DHT22;35067;48.134;8.378;2023-04-03T00:25:15;1.80;99.90
49236;DHT22;35067;48.134;8.378;2023-04-03T00:26:21;1.70;99.90
49236;DHT22;35067;48.134;8.378;2023-04-03T00:27:26;1.60;99.90
49236;DHT22;35067;48.134;8.378;2023-04-03T00:28:32;1.60;99.90
49236;DHT22;35067;48.134;8.378;2023-04-03T00:29:38;1.70;99.90
49236;DHT22;35067;48.134;8.378;2023-04-03T00:30:43;1.70;99.90
49236;DHT22;35067;48.134;8.378;2023-04-03T00:31:49;1.70;99.90
49236;DHT22;35067;48.134;8.378;2023-04-03T00:32:55;1.70;99.90
49236;DHT22;35067;48.134;8.378;2023-04-03T00:34:01;1.70;99.90
49236;DHT22;35067;48.134;8.378;2023-04-03T00:35:04;1.70;99.90
49236;DHT22;35067;48.134;8.378;2023-04-03T00:36:10;1.70;99.90
49236;DHT22;35067;48.134;8.378;2023-04-03T00:37:16;1.70;99.90
49236;DHT22;35067;48.134;8.378;2023-04-03T00:38:22;1.80;99.90
49236;DHT22;35067;48.134;8.378;2023-04-03T00:39:27;1.70;99.90
49236;DHT22;35067;48.134;8.378;2023-04-03T00:40:38;1.50;99.90
49236;DHT22;35067;48.134;8.378;2023-04-03T00:41:47;1.50;99.90
49236;DHT22;35067;48.134;8.378;2023-04-03T00:42:58;1.50;99.90
49236;DHT22;35067;48.134;8.378;2023-04-03T00:45:50;1.50;99.90
49236;DHT22;35067;48.134;8.378;2023-04-03T00:46:57;1.60;99.90
49236;DHT22;35067;48.134;8.378;2023-04-03T00:48:05;1.70;99.90
49236;DHT22;35067;48.134;8.378;2023-04-03T00:49:09;1.70;99.90
49236;DHT22;35067;48.134;8.378;2023-04-03T00:50:15;1.90;99.90
49236;DHT22;35067;48.134;8.378;2023-04-03T00:51:25;1.90;99.90
49236;DHT22;35067;48.134;8.378;2023-04-03T00:52:32;2.00;99.90
49236;DHT22;35067;48.134;8.378;2023-04-03T00:53:50;2.10;99.90
49236;DHT22;35067;48.134;8.378;2023-04-03T00:55:03;2.00;99.90
49236;DHT22;35067;48.134;8.378;2023-04-03T00:56:12;1.80;99.90
49236;DHT22;35067;48.134;8.378;2023-04-03T00:57:19;1.80;99.90
49236;DHT22;35067;48.134;8.378;2023-04-03T00:58:38;1.70;99.90
49236;DHT22;35067;48.134;8.378;2023-04-03T00:59:49;1.70;99.90
49236;DHT22;35067;48.134;8.378;2023-04-03T01:00:58;1.70;99.90
49236;DHT22;35067;48.134;8.378;2023-04-03T01:02:04;1.70;99.90
49236;DHT22;35067;48.134;8.378;2023-04-03T01:03:09;1.80;99.90
49236;DHT22;35067;48.134;8.378;2023-04-03T01:04:44;1.90;99.90
49236;DHT22;35067;48.134;8.378;2023-04-03T01:05:51;2.00;99.90
49236;DHT22;35067;48.134;8.378;2023-04-03T01:07:03;1.90;99.90
49236;DHT22;35067;48.134;8.378;2023-04-03T01:08:09;1.80;99.90
49236;DHT22;35067;48.134;8.378;2023-04-03T01:09:15;1.80;99.90
49236;DHT22;35067;48.134;8.378;2023-04-03T01:10:21;1.80;99.90
49236;DHT22;35067;48.134;8.378;2023-04-03T01:11:27;1.90;99.90
49236;DHT22;35067;48.134;8.378;2023-04-03T01:12:36;1.90;99.90
49236;DHT22;35067;48.134;8.378;2023-04-03T01:13:43;1.90;99.90
49236;DHT22;35067;48.134;8.378;2023-04-03T01:14:52;2.00;99.90
49236;DHT22;35067;48.134;8.378;2023-04-03T01:16:03;2.00;99.90
49236;DHT22;35067;48.134;8.378;2023-04-03T01:18:50;2.10;99.90
49236;DHT22;35067;48.134;8.378;2023-04-03T01:24:29;1.90;99.90
49236;DHT22;35067;48.134;8.378;2023-04-03T01:25:56;1.90;99.90
49236;DHT22;35067;48.134;8.378;2023-04-03T01:27:04;1.80;99.90
49236;DHT22;35067;48.134;8.378;2023-04-03T01:28:12;1.80;99.90
49236;DHT22;35067;48.134;8.378;2023-04-03T01:29:20;1.90;99.90
49236;DHT22;35067;48.134;8.378;2023-04-03T01:30:32;1.90;99.90
49236;DHT22;35067;48.134;8.378;2023-04-03T01:31:58;1.80;99.90
49236;DHT22;35067;48.134;8.378;2023-04-03T01:33:04;1.80;99.90
49236;DHT22;35067;48.134;8.378;2023-04-03T01:34:09;1.80;99.90
49236;DHT22;35067;48.134;8.378;2023-04-03T01:35:15;1.80;99.90
49236;DHT22;35067;48.134;8.378;2023-04-03T01:36:26;1.80;99.90
49236;DHT22;35067;48.134;8.378;2023-04-03T01:37:33;1.80;99.90
49236;DHT22;35067;48.134;8.378;2023-04-03T01:38:39;1.90;99.90
49236;DHT22;35067;48.134;8.378;2023-04-03T01:39:45;1.90;99.90
49236;DHT22;35067;48.134;8.378;2023-04-03T01:40:51;1.80;99.90
49236;DHT22;35067;48.134;8.378;2023-04-03T01:41:56;1.90;99.90
49236;DHT22;35067;48.134;8.378;2023-04-03T01:43:04;2.00;99.90
49236;DHT22;35067;48.134;8.378;2023-04-03T01:44:09;2.00;99.90
49236;DHT22;35067;48.134;8.378;2023-04-03T01:45:15;2.00;99.90
49236;DHT22;35067;48.134;8.378;2023-04-03T01:46:21;2.00;99.90
49236;DHT22;35067;48.134;8.378;2023-04-03T01:47:27;2.00;99.90
49236;DHT22;35067;48.134;8.378;2023-04-03T01:48:33;1.90;99.90
49236;DHT22;35067;48.134;8.378;2023-04-03T01:49:40;1.80;99.90
49236;DHT22;35067;48.134;8.378;2023-04-03T01:50:45;1.80;99.90
49236;DHT22;35067;48.134;8.378;2023-04-03T01:51:51;1.70;99.90
49236;DHT22;35067;48.134;8.378;2023-04-03T01:52:57;1.60;99.90
49236;DHT22;35067;48.134;8.378;2023-04-03T01:54:03;1.60;99.90
49236;DHT22;35067;48.134;8.378;2023-04-03T01:55:04;1.60;99.90
49236;DHT22;35067;48.134;8.378;2023-04-03T01:56:09;1.70;99.90
49236;DHT22;35067;48.134;8.378;2023-04-03T01:57:15;1.60;99.90
49236;DHT22;35067;48.134;8.378;2023-04-03T01:58:21;1.70;99.90
49236;DHT22;35067;48.134;8.378;2023-04-03T01:59:27;1.60;99.90
49236;DHT22;35067;48.134;8.378;2023-04-03T02:00:33;1.70;99.90
49236;DHT22;35067;48.134;8.378;2023-04-03T02:01:39;1.70;99.90
49236;DHT22;35067;48.134;8.378;2023-04-03T02:02:45;1.80;99.90
49236;DHT22;35067;48.134;8.378;2023-04-03T02:03:50;1.90;99.90
49236;DHT22;35067;48.134;8.378;2023-04-03T02:04:56;2.00;99.90
49236;DHT22;35067;48.134;8.378;2023-04-03T02:06:02;2.00;99.90
49236;DHT22;35067;48.134;8.378;2023-04-03T02:07:04;2.10;99.90
49236;DHT22;35067;48.134;8.378;2023-04-03T02:08:09;2.10;99.90
49236;DHT22;35067;48.134;8.378;2023-04-03T02:09:15;2.10;99.90
49236;DHT22;35067;48.134;8.378;2023-04-03T02:10:21;2.20;99.90
49236;DHT22;35067;48.134;8.378;2023-04-03T02:11:26;2.20;99.90
49236;DHT22;35067;48.134;8.378;2023-04-03T02:12:32;2.10;99.90
49236;DHT22;35067;48.134;8.378;2023-04-03T02:13:38;2.10;99.90
49236;DHT22;35067;48.134;8.378;2023-04-03T02:14:44;2.00;99.90
49236;DHT22;35067;48.134;8.378;2023-04-03T02:15:49;2.00;99.90
49236;DHT22;35067;48.134;8.378;2023-04-03T02:16:55;2.00;99.90
49236;DHT22;35067;48.134;8.378;2023-04-03T02:18:01;1.90;99.90
49236;DHT22;35067;48.134;8.378;2023-04-03T02:19:04;1.70;99.90
49236;DHT22;35067;48.134;8.378;2023-04-03T02:20:10;1.70;99.90
49236;DHT22;35067;48.134;8.378;2023-04-03T02:21:15;1.70;99.90
49236;DHT22;35067;48.134;8.378;2023-04-03T02:22:21;1.80;99.90
49236;DHT22;35067;48.134;8.378;2023-04-03T02:23:27;1.80;99.90
49236;DHT22;35067;48.134;8.378;2023-04-03T02:24:32;1.90;99.90
49236;DHT22;35067;48.134;8.378;2023-04-03T02:25:38;1.90;99.90
49236;DHT22;35067;48.134;8.378;2023-04-03T02:26:44;1.90;99.90
49236;DHT22;35067;48.134;8.378;2023-04-03T02:27:50;1.90;99.90
49236;DHT22;35067;48.134;8.378;2023-04-03T02:28:56;2.00;99.90
49236;DHT22;35067;48.134;8.378;2023-04-03T02:30:02;1.90;99.90
49236;DHT22;35067;48.134;8.378;2023-04-03T02:31:05;2.00;99.90
49236;DHT22;35067;48.134;8.378;2023-04-03T02:32:09;2.00;99.90
49236;DHT22;35067;48.134;8.378;2023-04-03T02:33:15;2.00;99.90
49236;DHT22;35067;48.134;8.378;2023-04-03T02:34:20;2.10;99.90
49236;DHT22;35067;48.134;8.378;2023-04-03T02:35:26;2.10;99.90
49236;DHT22;35067;48.134;8.378;2023-04-03T02:36:32;2.00;99.90
49236;DHT22;35067;48.134;8.378;2023-04-03T02:37:38;2.00;99.90
49236;DHT22;35067;48.134;8.378;2023-04-03T02:38:44;2.00;99.90
49236;DHT22;35067;48.134;8.378;2023-04-03T02:39:50;2.00;99.90
49236;DHT22;35067;48.134;8.378;2023-04-03T02:41:04;1.90;99.90
49236;DHT22;35067;48.134;8.378;2023-04-03T02:42:09;1.90;99.90
49236;DHT22;35067;48.134;8.378;2023-04-03T02:43:15;1.80;99.90
49236;DHT22;35067;48.134;8.378;2023-04-03T02:44:21;1.80;99.90
49236;DHT22;35067;48.134;8.378;2023-04-03T02:45:28;1.80;99.90
49236;DHT22;35067;48.134;8.378;2023-04-03T02:46:34;1.80;99.90
49236;DHT22;35067;48.134;8.378;2023-04-03T02:47:40;1.70;99.90
49236;DHT22;35067;48.134;8.378;2023-04-03T02:48:46;1.70;99.90
49236;DHT22;35067;48.134;8.378;2023-04-03T02:49:52;1.70;99.90
49236;DHT22;35067;48.134;8.378;2023-04-03T02:50:58;1.80;99.90
49236;DHT22;35067;48.134;8.378;2023-04-03T02:52:03;1.80;99.90
49236;DHT22;35067;48.134;8.378;2023-04-03T02:53:09;1.80;99.90
49236;DHT22;35067;48.134;8.378;2023-04-03T02:54:15;1.90;99.90
49236;DHT22;35067;48.134;8.378;2023-04-03T02:55:21;1.90;99.90
49236;DHT22;35067;48.134;8.378;2023-04-03T02:56:27;1.80;99.90
49236;DHT22;35067;48.134;8.378;2023-04-03T02:57:33;1.70;99.90
49236;DHT22;35067;48.134;8.378;2023-04-03T02:58:38;1.70;99.90
49236;DHT22;35067;48.134;8.378;2023-04-03T02:59:44;1.40;99.90
49236;DHT22;35067;48.134;8.378;2023-04-03T03:00:50;1.60;99.90
49236;DHT22;35067;48.134;8.378;2023-04-03T03:01:56;1.60;99.90
49236;DHT22;35067;48.134;8.378;2023-04-03T03:03:01;1.60;99.90
49236;DHT22;35067;48.134;8.378;2023-04-03T03:04:04;1.70;99.90
49236;DHT22;35067;48.134;8.378;2023-04-03T03:05:09;1.60;99.90
49236;DHT22;35067;48.134;8.378;2023-04-03T03:06:16;1.60;99.90
49236;DHT22;35067;48.134;8.378;2023-04-03T03:07:22;1.60;99.90
49236;DHT22;35067;48.134;8.378;2023-04-03T03:08:28;1.60;99.90
49236;DHT22;35067;48.134;8.378;2023-04-03T03:09:34;1.70;99.90
49236;DHT22;35067;48.134;8.378;2023-04-03T03:10:39;2.20;99.90
49236;DHT22;35067;48.134;8.378;2023-04-03T03:11:45;1.70;99.90
49236;DHT22;35067;48.134;8.378;2023-04-03T03:12:51;1.70;99.90
49236;DHT22;35067;48.134;8.378;2023-04-03T03:13:57;1.80;99.90
49236;DHT22;35067;48.134;8.378;2023-04-03T03:15:03;1.70;99.90
49236;DHT22;35067;48.134;8.378;2023-04-03T03:16:05;1.70;99.90
49236;DHT22;35067;48.134;8.378;2023-04-03T03:17:09;1.70;99.90
49236;DHT22;35067;48.134;8.378;2023-04-03T03:18:15;1.70;99.90
49236;DHT22;35067;48.134;8.378;2023-04-03T03:19:20;1.60;99.90
49236;DHT22;35067;48.134;8.378;2023-04-03T03:20:26;1.60;99.90
49236;DHT22;35067;48.134;8.378;2023-04-03T03:21:32;1.50;99.90
49236;DHT22;35067;48.134;8.378;2023-04-03T03:22:38;1.50;99.90
49236;DHT22;35067;48.134;8.378;2023-04-03T03:23:43;1.50;99.90
49236;DHT22;35067;48.134;8.378;2023-04-03T03:24:49;1.50;99.90
49236;DHT22;35067;48.134;8.378;2023-04-03T03:26:00;1.60;99.90
49236;DHT22;35067;48.134;8.378;2023-04-03T03:27:04;1.60;99.90
49236;DHT22;35067;48.134;8.378;2023-04-03T03:28:09;1.50;99.90
49236;DHT22;35067;48.134;8.378;2023-04-03T03:29:15;1.40;99.90
49236;DHT22;35067;48.134;8.378;2023-04-03T03:30:21;1.50;99.90
49236;DHT22;35067;48.134;8.378;2023-04-03T03:31:26;1.50;99.90
49236;DHT22;35067;48.134;8.378;2023-04-03T03:32:32;1.50;99.90
49236;DHT22;35067;48.134;8.378;2023-04-03T03:33:38;1.50;99.90
49236;DHT22;35067;48.134;8.378;2023-04-03T03:34:44;1.60;99.90
49236;DHT22;35067;48.134;8.378;2023-04-03T03:35:49;1.50;99.90
49236;DHT22;35067;48.134;8.378;2023-04-03T03:36:55;1.50;99.90
49236;DHT22;35067;48.134;8.378;2023-04-03T03:38:01;1.40;99.90
49236;DHT22;35067;48.134;8.378;2023-04-03T03:39:04;1.40;99.90
49236;DHT22;35067;48.134;8.378;2023-04-03T03:40:10;1.40;99.90
49236;DHT22;35067;48.134;8.378;2023-04-03T03:41:17;1.40;99.90
49236;DHT22;35067;48.134;8.378;2023-04-03T03:42:23;1.40;99.90
49236;DHT22;35067;48.134;8.378;2023-04-03T03:43:29;1.40;99.90
49236;DHT22;35067;48.134;8.378;2023-04-03T03:44:35;1.30;99.90
49236;DHT22;35067;48.134;8.378;2023-04-03T03:45:41;1.30;99.90
49236;DHT22;35067;48.134;8.378;2023-04-03T03:46:47;1.30;99.90
49236;DHT22;35067;48.134;8.378;2023-04-03T03:47:52;1.30;99.90
49236;DHT22;35067;48.134;8.378;2023-04-03T03:48:58;1.50;99.90
49236;DHT22;35067;48.134;8.378;2023-04-03T03:50:05;1.50;99.90
49236;DHT22;35067;48.134;8.378;2023-04-03T03:51:09;1.60;99.90
49236;DHT22;35067;48.134;8.378;2023-04-03T03:52:15;1.50;99.90
49236;DHT22;35067;48.134;8.378;2023-04-03T03:53:20;1.50;99.90
49236;DHT22;35067;48.134;8.378;2023-04-03T03:54:26;1.50;99.90
49236;DHT22;35067;48.134;8.378;2023-04-03T03:55:32;1.40;99.90
49236;DHT22;35067;48.134;8.378;2023-04-03T03:56:37;1.50;99.90
49236;DHT22;35067;48.134;8.378;2023-04-03T03:57:43;1.50;99.90
49236;DHT22;35067;48.134;8.378;2023-04-03T03:58:49;1.50;99.90
49236;DHT22;35067;48.134;8.378;2023-04-03T03:59:55;1.50;99.90
49236;DHT22;35067;48.134;8.378;2023-04-03T04:01:02;1.50;99.90
49236;DHT22;35067;48.134;8.378;2023-04-03T04:02:04;1.60;99.90
49236;DHT22;35067;48.134;8.378;2023-04-03T04:03:09;1.60;99.90
49236;DHT22;35067;48.134;8.378;2023-04-03T04:04:15;1.60;99.90
49236;DHT22;35067;48.134;8.378;2023-04-03T04:05:20;1.60;99.90
49236;DHT22;35067;48.134;8.378;2023-04-03T04:06:27;1.60;99.90
49236;DHT22;35067;48.134;8.378;2023-04-03T04:07:32;1.70;99.90
49236;DHT22;35067;48.134;8.378;2023-04-03T04:08:38;1.60;99.90
49236;DHT22;35067;48.134;8.378;2023-04-03T04:09:44;1.60;99.90
49236;DHT22;35067;48.134;8.378;2023-04-03T04:10:50;1.60;99.90
49236;DHT22;35067;48.134;8.378;2023-04-03T04:11:55;1.60;99.90
49236;DHT22;35067;48.134;8.378;2023-04-03T04:13:01;1.50;99.90
49236;DHT22;35067;48.134;8.378;2023-04-03T04:14:04;1.50;99.90
49236;DHT22;35067;48.134;8.378;2023-04-03T04:15:09;1.50;99.90
49236;DHT22;35067;48.134;8.378;2023-04-03T04:16:15;1.50;99.90
49236;DHT22;35067;48.134;8.378;2023-04-03T04:17:21;1.60;99.90
49236;DHT22;35067;48.134;8.378;2023-04-03T04:18:27;1.70;99.90
49236;DHT22;35067;48.134;8.378;2023-04-03T04:19:33;1.70;99.90
49236;DHT22;35067;48.134;8.378;2023-04-03T04:20:39;1.80;99.90
49236;DHT22;35067;48.134;8.378;2023-04-03T04:21:44;1.60;99.90
49236;DHT22;35067;48.134;8.378;2023-04-03T04:22:51;1.70;99.90
49236;DHT22;35067;48.134;8.378;2023-04-03T04:23:56;1.60;99.90
49236;DHT22;35067;48.134;8.378;2023-04-03T04:25:02;1.60;99.90
49236;DHT22;35067;48.134;8.378;2023-04-03T04:26:04;1.60;99.90
49236;DHT22;35067;48.134;8.378;2023-04-03T04:27:09;1.60;99.90
49236;DHT22;35067;48.134;8.378;2023-04-03T04:28:16;1.50;99.90
49236;DHT22;35067;48.134;8.378;2023-04-03T04:29:22;1.50;99.90
49236;DHT22;35067;48.134;8.378;2023-04-03T04:30:27;1.50;99.90
49236;DHT22;35067;48.134;8.378;2023-04-03T04:31:33;1.50;99.90
49236;DHT22;35067;48.134;8.378;2023-04-03T04:32:39;1.40;99.90
49236;DHT22;35067;48.134;8.378;2023-04-03T04:33:45;1.30;99.90
49236;DHT22;35067;48.134;8.378;2023-04-03T04:34:50;1.40;99.90
49236;DHT22;35067;48.134;8.378;2023-04-03T04:35:56;1.40;99.90
49236;DHT22;35067;48.134;8.378;2023-04-03T04:37:02;1.40;99.90
49236;DHT22;35067;48.134;8.378;2023-04-03T04:38:04;1.50;99.90
49236;DHT22;35067;48.134;8.378;2023-04-03T04:39:09;1.50;99.90
49236;DHT22;35067;48.134;8.378;2023-04-03T04:40:15;1.50;99.90
49236;DHT22;35067;48.134;8.378;2023-04-03T04:41:21;1.50;99.90
49236;DHT22;35067;48.134;8.378;2023-04-03T04:42:30;1.50;99.90
49236;DHT22;35067;48.134;8.378;2023-04-03T04:43:36;1.60;99.90
49236;DHT22;35067;48.134;8.378;2023-04-03T04:44:42;1.60;99.90
49236;DHT22;35067;48.134;8.378;2023-04-03T04:45:48;1.60;99.90
49236;DHT22;35067;48.134;8.378;2023-04-03T04:46:53;1.50;99.90
49236;DHT22;35067;48.134;8.378;2023-04-03T04:47:59;1.40;99.90
49236;DHT22;35067;48.134;8.378;2023-04-03T04:49:04;1.30;99.90
49236;DHT22;35067;48.134;8.378;2023-04-03T04:50:10;1.20;99.90
49236;DHT22;35067;48.134;8.378;2023-04-03T04:51:16;1.20;99.90
49236;DHT22;35067;48.134;8.378;2023-04-03T04:52:22;1.30;99.90
49236;DHT22;35067;48.134;8.378;2023-04-03T04:53:28;1.30;99.90
49236;DHT22;35067;48.134;8.378;2023-04-03T04:54:33;1.40;99.90
49236;DHT22;35067;48.134;8.378;2023-04-03T04:55:39;1.50;99.90
49236;DHT22;35067;48.134;8.378;2023-04-03T04:56:45;1.60;99.90
49236;DHT22;35067;48.134;8.378;2023-04-03T04:57:51;1.60;99.90
49236;DHT22;35067;48.134;8.378;2023-04-03T04:58:56;1.70;99.90
49236;DHT22;35067;48.134;8.378;2023-04-03T05:00:03;1.50;99.90
49236;DHT22;35067;48.134;8.378;2023-04-03T05:01:06;1.50;99.90
49236;DHT22;35067;48.134;8.378;2023-04-03T05:02:09;1.40;99.90
49236;DHT22;35067;48.134;8.378;2023-04-03T05:03:15;1.40;99.90
49236;DHT22;35067;48.134;8.378;2023-04-03T05:04:21;1.50;99.90
49236;DHT22;35067;48.134;8.378;2023-04-03T05:05:26;1.50;99.90
49236;DHT22;35067;48.134;8.378;2023-04-03T05:06:33;1.60;99.90
49236;DHT22;35067;48.134;8.378;2023-04-03T05:07:40;1.60;99.90
49236;DHT22;35067;48.134;8.378;2023-04-03T05:08:46;1.60;99.90
49236;DHT22;35067;48.134;8.378;2023-04-03T05:09:52;1.60;99.90
49236;DHT22;35067;48.134;8.378;2023-04-03T05:10:58;1.70;99.90
49236;DHT22;35067;48.134;8.378;2023-04-03T05:12:03;1.70;99.90
49236;DHT22;35067;48.134;8.378;2023-04-03T05:13:09;1.70;99.90
49236;DHT22;35067;48.134;8.378;2023-04-03T05:14:15;1.70;99.90
49236;DHT22;35067;48.134;8.378;2023-04-03T05:15:21;1.60;99.90
49236;DHT22;35067;48.134;8.378;2023-04-03T05:16:27;1.50;99.90
49236;DHT22;35067;48.134;8.378;2023-04-03T05:17:32;1.50;99.90
49236;DHT22;35067;48.134;8.378;2023-04-03T05:18:38;1.60;99.90
49236;DHT22;35067;48.134;8.378;2023-04-03T05:19:44;1.70;99.90
49236;DHT22;35067;48.134;8.378;2023-04-03T05:20:50;1.70;99.90
49236;DHT22;35067;48.134;8.378;2023-04-03T05:21:55;1.60;99.90
49236;DHT22;35067;48.134;8.378;2023-04-03T05:23:01;1.50;99.90
49236;DHT22;35067;48.134;8.378;2023-04-03T05:24:05;1.60;99.90
49236;DHT22;35067;48.134;8.378;2023-04-03T05:25:09;1.50;99.90
49236;DHT22;35067;48.134;8.378;2023-04-03T05:26:15;1.50;99.90
49236;DHT22;35067;48.134;8.378;2023-04-03T05:27:21;1.60;99.90
49236;DHT22;35067;48.134;8.378;2023-04-03T05:28:29;1.60;99.90
49236;DHT22;35067;48.134;8.378;2023-04-03T05:29:35;1.70;99.90
49236;DHT22;35067;48.134;8.378;2023-04-03T05:30:40;1.60;99.90
49236;DHT22;35067;48.134;8.378;2023-04-03T05:31:49;1.50;99.90
49236;DHT22;35067;48.134;8.378;2023-04-03T05:32:55;1.50;99.90
49236;DHT22;35067;48.134;8.378;2023-04-03T05:34:02;1.50;99.90
49236;DHT22;35067;48.134;8.378;2023-04-03T05:35:05;1.40;99.90
49236;DHT22;35067;48.134;8.378;2023-04-03T05:36:09;1.30;99.90
49236;DHT22;35067;48.134;8.378;2023-04-03T05:37:15;1.40;99.90
49236;DHT22;35067;48.134;8.378;2023-04-03T05:38:20;1.40;99.90
49236;DHT22;35067;48.134;8.378;2023-04-03T05:39:26;1.50;99.90
49236;DHT22;35067;48.134;8.378;2023-04-03T05:40:32;1.50;99.90
49236;DHT22;35067;48.134;8.378;2023-04-03T05:41:38;1.40;99.90
49236;DHT22;35067;48.134;8.378;2023-04-03T05:42:43;1.40;99.90
49236;DHT22;35067;48.134;8.378;2023-04-03T05:43:49;1.40;99.90
49236;DHT22;35067;48.134;8.378;2023-04-03T05:44:55;1.40;99.90
49236;DHT22;35067;48.134;8.378;2023-04-03T05:46:01;1.40;99.90
49236;DHT22;35067;48.134;8.378;2023-04-03T05:47:04;1.50;99.90
49236;DHT22;35067;48.134;8.378;2023-04-03T05:48:09;1.60;99.90
49236;DHT22;35067;48.134;8.378;2023-04-03T05:49:15;1.50;99.90
49236;DHT22;35067;48.134;8.378;2023-04-03T05:50:21;1.50;99.90
49236;DHT22;35067;48.134;8.378;2023-04-03T05:51:35;1.40;99.90
49236;DHT22;35067;48.134;8.378;2023-04-03T05:52:45;1.30;99.90
49236;DHT22;35067;48.134;8.378;2023-04-03T05:53:56;1.30;99.90
49236;DHT22;35067;48.134;8.378;2023-04-03T05:55:05;1.30;99.90
49236;DHT22;35067;48.134;8.378;2023-04-03T05:56:09;1.50;99.90
49236;DHT22;35067;48.134;8.378;2023-04-03T05:57:15;1.50;99.90
49236;DHT22;35067;48.134;8.378;2023-04-03T05:58:21;1.40;99.90
49236;DHT22;35067;48.134;8.378;2023-04-03T05:59:27;1.40;99.90
49236;DHT22;35067;48.134;8.378;2023-04-03T06:00:32;1.20;99.90
49236;DHT22;35067;48.134;8.378;2023-04-03T06:01:38;1.20;99.90
49236;DHT22;35067;48.134;8.378;2023-04-03T06:02:44;1.20;99.90
49236;DHT22;35067;48.134;8.378;2023-04-03T06:03:50;1.30;99.90
49236;DHT22;35067;48.134;8.378;2023-04-03T06:04:55;1.30;99.90
49236;DHT22;35067;48.134;8.378;2023-04-03T06:06:03;1.40;99.90
49236;DHT22;35067;48.134;8.378;2023-04-03T06:07:16;1.60;99.90
49236;DHT22;35067;48.134;8.378;2023-04-03T06:08:26;1.50;99.90
49236;DHT22;35067;48.134;8.378;2023-04-03T06:09:32;1.50;99.90
49236;DHT22;35067;48.134;8.378;2023-04-03T06:10:37;1.60;99.90
49236;DHT22;35067;48.134;8.378;2023-04-03T06:11:44;1.70;99.90
49236;DHT22;35067;48.134;8.378;2023-04-03T06:12:50;1.70;99.90
49236;DHT22;35067;48.134;8.378;2023-04-03T06:13:56;1.70;99.90
49236;DHT22;35067;48.134;8.378;2023-04-03T06:15:02;1.80;99.90
49236;DHT22;35067;48.134;8.378;2023-04-03T06:16:05;1.70;99.90
49236;DHT22;35067;48.134;8.378;2023-04-03T06:17:10;1.70;99.90
49236;DHT22;35067;48.134;8.378;2023-04-03T06:18:17;1.80;99.90
49236;DHT22;35067;48.134;8.378;2023-04-03T06:19:23;1.90;99.90
49236;DHT22;35067;48.134;8.378;2023-04-03T06:20:29;1.80;99.90
49236;DHT22;35067;48.134;8.378;2023-04-03T06:21:34;1.80;99.90
49236;DHT22;35067;48.134;8.378;2023-04-03T06:22:41;1.70;99.90
49236;DHT22;35067;48.134;8.378;2023-04-03T06:23:47;1.70;99.90
49236;DHT22;35067;48.134;8.378;2023-04-03T06:24:52;1.70;99.90
49236;DHT22;35067;48.134;8.378;2023-04-03T06:25:58;1.70;99.90
49236;DHT22;35067;48.134;8.378;2023-04-03T06:27:04;1.80;99.90
49236;DHT22;35067;48.134;8.378;2023-04-03T06:28:09;1.80;99.90
49236;DHT22;35067;48.134;8.378;2023-04-03T06:29:15;1.70;99.90
49236;DHT22;35067;48.134;8.378;2023-04-03T06:30:21;1.70;99.90
49236;DHT22;35067;48.134;8.378;2023-04-03T06:31:27;1.70;99.90
49236;DHT22;35067;48.134;8.378;2023-04-03T06:32:32;1.70;99.90
49236;DHT22;35067;48.134;8.378;2023-04-03T06:33:38;1.70;99.90
49236;DHT22;35067;48.134;8.378;2023-04-03T06:34:44;1.70;99.90
49236;DHT22;35067;48.134;8.378;2023-04-03T06:35:56;1.70;99.90
49236;DHT22;35067;48.134;8.378;2023-04-03T06:37:03;1.70;99.90
49236;DHT22;35067;48.134;8.378;2023-04-03T06:38:04;1.80;99.90
49236;DHT22;35067;48.134;8.378;2023-04-03T06:39:17;1.70;99.90
49236;DHT22;35067;48.134;8.378;2023-04-03T06:40:26;1.70;99.90
49236;DHT22;35067;48.134;8.378;2023-04-03T06:41:32;1.80;99.90
49236;DHT22;35067;48.134;8.378;2023-04-03T06:42:37;1.70;99.90
49236;DHT22;35067;48.134;8.378;2023-04-03T06:43:43;1.80;99.90
49236;DHT22;35067;48.134;8.378;2023-04-03T06:44:50;1.90;99.90
49236;DHT22;35067;48.134;8.378;2023-04-03T06:45:55;1.80;99.90
49236;DHT22;35067;48.134;8.378;2023-04-03T06:47:01;1.50;99.90
49236;DHT22;35067;48.134;8.378;2023-04-03T06:48:04;1.30;99.90
49236;DHT22;35067;48.134;8.378;2023-04-03T06:49:09;1.30;99.90
49236;DHT22;35067;48.134;8.378;2023-04-03T06:50:15;1.30;99.90
49236;DHT22;35067;48.134;8.378;2023-04-03T06:51:23;1.30;99.90
49236;DHT22;35067;48.134;8.378;2023-04-03T06:52:31;1.40;99.90
49236;DHT22;35067;48.134;8.378;2023-04-03T06:53:37;1.40;99.90
49236;DHT22;35067;48.134;8.378;2023-04-03T06:54:42;1.40;99.90
49236;DHT22;35067;48.134;8.378;2023-04-03T06:55:48;1.50;99.90
49236;DHT22;35067;48.134;8.378;2023-04-03T06:56:54;1.40;99.90
49236;DHT22;35067;48.134;8.378;2023-04-03T06:57:59;1.50;99.90
49236;DHT22;35067;48.134;8.378;2023-04-03T06:59:04;1.60;99.90
49236;DHT22;35067;48.134;8.378;2023-04-03T07:00:11;1.60;99.90
49236;DHT22;35067;48.134;8.378;2023-04-03T07:01:18;1.70;99.90
49236;DHT22;35067;48.134;8.378;2023-04-03T07:02:24;1.80;99.90
49236;DHT22;35067;48.134;8.378;2023-04-03T07:03:30;1.90;99.90
49236;DHT22;35067;48.134;8.378;2023-04-03T07:04:36;1.90;99.90
49236;DHT22;35067;48.134;8.378;2023-04-03T07:05:41;1.60;99.90
49236;DHT22;35067;48.134;8.378;2023-04-03T07:06:50;1.70;99.90
49236;DHT22;35067;48.134;8.378;2023-04-03T07:07:56;1.70;99.90
49236;DHT22;35067;48.134;8.378;2023-04-03T07:09:02;1.60;99.90
49236;DHT22;35067;48.134;8.378;2023-04-03T07:10:06;1.60;99.90
49236;DHT22;35067;48.134;8.378;2023-04-03T07:11:10;1.50;99.90
49236;DHT22;35067;48.134;8.378;2023-04-03T07:12:17;1.40;99.90